sensor_id;sensor_type;location;lat;lon;timestamp;pressure;altitude;pressure_sealevel;temperature;humidity
11212;BME280;5663;50.864;12.096;2022-07-17T00:32:08;100388.31;;;12.52;56.20
11212;BME280;5663;50.864;12.096;2022-07-17T00:35:02;100388.47;;;12.49;56.35
11212;BME280;5663;50.864;12.096;2022-07-17T00:38:06;100385.19;;;12.44;56.92
11212;BME280;5663;50.864;12.096;2022-07-17T00:41:17;100388.84;;;12.40;56.99
11212;BME280;5663;50.864;12.096;2022-07-17T00:44:13;100367.72;;;12.25;56.84
11212;BME280;5663;50.864;12.096;2022-07-17T00:47:31;100384.03;;;12.30;56.90
11212;BME280;5663;50.864;12.096;2022-07-17T00:57:42;100386.94;;;12.23;56.96
11212;BME280;5663;50.864;12.096;2022-07-17T01:00:21;100385.50;;;12.16;57.47
11212;BME280;5663;50.864;12.096;2022-07-17T01:03:23;100393.50;;;12.11;57.65
11212;BME280;5663;50.864;12.096;2022-07-17T01:06:28;100395.34;;;12.09;57.47
11212;BME280;5663;50.864;12.096;2022-07-17T01:09:23;100390.91;;;12.11;57.39
11212;BME280;5663;50.864;12.096;2022-07-17T01:12:36;100392.75;;;12.09;57.50
11212;BME280;5663;50.864;12.096;2022-07-17T01:15:13;100397.28;;;12.04;57.27
11212;BME280;5663;50.864;12.096;2022-07-17T01:22:38;100406.97;;;12.00;57.76
11212;BME280;5663;50.864;12.096;2022-07-17T01:25:43;100403.72;;;11.95;57.76
11212;BME280;5663;50.864;12.096;2022-07-17T01:28:53;100402.13;;;11.91;57.42
11212;BME280;5663;50.864;12.096;2022-07-17T01:31:36;100403.38;;;11.81;57.48
11212;BME280;5663;50.864;12.096;2022-07-17T01:34:44;100410.34;;;11.80;58.08
11212;BME280;5663;50.864;12.096;2022-07-17T01:38:25;100402.78;;;11.74;57.71
11212;BME280;5663;50.864;12.096;2022-07-17T01:45:15;100409.25;;;11.64;57.96
11212;BME280;5663;50.864;12.096;2022-07-17T01:49:23;100412.03;;;11.59;58.22
11212;BME280;5663;50.864;12.096;2022-07-17T01:52:34;100404.59;;;11.49;58.29
11212;BME280;5663;50.864;12.096;2022-07-17T02:06:22;100414.53;;;11.39;58.30
11212;BME280;5663;50.864;12.096;2022-07-17T02:16:35;100369.94;;;11.01;58.77
11212;BME280;5663;50.864;12.096;2022-07-17T03:33:32;100407.81;;;11.10;59.28
11212;BME280;5663;50.864;12.096;2022-07-17T04:24:41;100430.63;;;10.78;59.86
11212;BME280;5663;50.864;12.096;2022-07-17T04:32:24;100431.09;;;10.90;60.07
11212;BME280;5663;50.864;12.096;2022-07-17T04:39:07;100425.56;;;10.99;59.87
11212;BME280;5663;50.864;12.096;2022-07-17T04:50:15;100442.91;;;11.23;59.65
11212;BME280;5663;50.864;12.096;2022-07-17T04:53:39;100422.44;;;11.13;60.36
11212;BME280;5663;50.864;12.096;2022-07-17T04:56:29;100442.56;;;11.32;59.94
11212;BME280;5663;50.864;12.096;2022-07-17T04:59:26;100439.75;;;11.39;60.03
11212;BME280;5663;50.864;12.096;2022-07-17T05:02:39;100445.50;;;11.47;60.44
11212;BME280;5663;50.864;12.096;2022-07-17T05:09:05;100447.53;;;11.62;60.77
11212;BME280;5663;50.864;12.096;2022-07-17T05:12:22;100441.97;;;11.71;61.09
11212;BME280;5663;50.864;12.096;2022-07-17T05:15:20;100424.41;;;11.76;60.94
11212;BME280;5663;50.864;12.096;2022-07-17T05:17:57;100439.50;;;12.14;60.73
11212;BME280;5663;50.864;12.096;2022-07-17T05:20:29;100418.22;;;12.45;60.90
11212;BME280;5663;50.864;12.096;2022-07-17T05:23:25;100436.91;;;13.16;61.36
11212;BME280;5663;50.864;12.096;2022-07-17T05:26:10;100437.59;;;13.77;60.38
11212;BME280;5663;50.864;12.096;2022-07-17T05:29:21;100432.81;;;14.41;58.55
11212;BME280;5663;50.864;12.096;2022-07-17T05:32:43;100450.31;;;15.25;57.11
11212;BME280;5663;50.864;12.096;2022-07-17T05:35:53;100458.81;;;16.25;55.75
11212;BME280;5663;50.864;12.096;2022-07-17T05:38:58;100453.63;;;17.00;53.41
11212;BME280;5663;50.864;12.096;2022-07-17T05:44:45;100464.25;;;18.51;50.28
11212;BME280;5663;50.864;12.096;2022-07-17T05:47:38;100454.00;;;19.25;49.65
11212;BME280;5663;50.864;12.096;2022-07-17T05:50:21;100461.41;;;19.82;48.14
11212;BME280;5663;50.864;12.096;2022-07-17T05:53:18;100456.19;;;20.41;46.82
11212;BME280;5663;50.864;12.096;2022-07-17T05:55:55;100462.16;;;20.91;45.68
11212;BME280;5663;50.864;12.096;2022-07-17T05:58:28;100454.44;;;21.10;44.75
11212;BME280;5663;50.864;12.096;2022-07-17T06:00:57;100471.59;;;21.40;44.24
11212;BME280;5663;50.864;12.096;2022-07-17T06:03:31;100460.72;;;21.65;43.62
11212;BME280;5663;50.864;12.096;2022-07-17T06:06:02;100458.28;;;21.96;42.96
11212;BME280;5663;50.864;12.096;2022-07-17T06:08:30;100462.69;;;22.18;43.16
11212;BME280;5663;50.864;12.096;2022-07-17T06:11:05;100458.72;;;22.24;42.00
11212;BME280;5663;50.864;12.096;2022-07-17T06:13:41;100458.47;;;22.27;41.70
11212;BME280;5663;50.864;12.096;2022-07-17T06:16:30;100468.91;;;22.60;41.43
11212;BME280;5663;50.864;12.096;2022-07-17T06:19:05;100460.34;;;22.78;41.17
11212;BME280;5663;50.864;12.096;2022-07-17T06:21:34;100468.03;;;22.92;41.00
11212;BME280;5663;50.864;12.096;2022-07-17T06:24:04;100458.94;;;23.16;40.77
11212;BME280;5663;50.864;12.096;2022-07-17T06:26:39;100450.84;;;23.48;39.58
11212;BME280;5663;50.864;12.096;2022-07-17T06:29:18;100449.13;;;23.68;39.68
11212;BME280;5663;50.864;12.096;2022-07-17T06:31:46;100448.00;;;23.70;40.08
11212;BME280;5663;50.864;12.096;2022-07-17T06:34:21;100444.09;;;23.84;40.16
11212;BME280;5663;50.864;12.096;2022-07-17T06:36:49;100457.16;;;24.06;39.06
11212;BME280;5663;50.864;12.096;2022-07-17T06:39:20;100455.06;;;24.20;38.90
11212;BME280;5663;50.864;12.096;2022-07-17T06:41:51;100461.25;;;24.30;38.39
11212;BME280;5663;50.864;12.096;2022-07-17T06:44:28;100450.19;;;24.34;38.13
11212;BME280;5663;50.864;12.096;2022-07-17T06:47:08;100461.53;;;24.46;36.42
11212;BME280;5663;50.864;12.096;2022-07-17T06:49:41;100455.34;;;24.36;36.84
11212;BME280;5663;50.864;12.096;2022-07-17T06:52:25;100450.28;;;24.14;36.57
11212;BME280;5663;50.864;12.096;2022-07-17T06:54:57;100459.22;;;23.74;37.04
11212;BME280;5663;50.864;12.096;2022-07-17T06:57:38;100459.03;;;23.35;37.28
11212;BME280;5663;50.864;12.096;2022-07-17T07:00:08;100462.91;;;23.00;38.20
11212;BME280;5663;50.864;12.096;2022-07-17T07:02:37;100449.38;;;22.61;37.96
11212;BME280;5663;50.864;12.096;2022-07-17T07:05:06;100462.94;;;22.47;37.96
11212;BME280;5663;50.864;12.096;2022-07-17T07:07:37;100476.81;;;22.19;37.89
11212;BME280;5663;50.864;12.096;2022-07-17T07:10:27;100471.31;;;21.88;38.89
11212;BME280;5663;50.864;12.096;2022-07-17T07:13:07;100476.03;;;21.62;39.80
11212;BME280;5663;50.864;12.096;2022-07-17T07:15:38;100472.06;;;21.34;39.77
11212;BME280;5663;50.864;12.096;2022-07-17T07:18:07;100475.38;;;21.02;39.73
11212;BME280;5663;50.864;12.096;2022-07-17T07:20:35;100458.22;;;20.61;40.16
11212;BME280;5663;50.864;12.096;2022-07-17T07:23:03;100483.94;;;20.59;41.17
11212;BME280;5663;50.864;12.096;2022-07-17T07:25:31;100480.72;;;20.43;40.61
11212;BME280;5663;50.864;12.096;2022-07-17T07:28:11;100475.59;;;20.29;40.92
11212;BME280;5663;50.864;12.096;2022-07-17T07:31:16;100471.72;;;20.22;42.17
11212;BME280;5663;50.864;12.096;2022-07-17T07:34:11;100468.78;;;20.13;41.73
11212;BME280;5663;50.864;12.096;2022-07-17T07:39:20;100464.59;;;20.11;41.84
11212;BME280;5663;50.864;12.096;2022-07-17T07:39:35;100469.25;;;20.07;42.07
11212;BME280;5663;50.864;12.096;2022-07-17T07:42:19;100458.91;;;20.04;41.54
11212;BME280;5663;50.864;12.096;2022-07-17T07:44:50;100410.88;;;19.75;42.48
11212;BME280;5663;50.864;12.096;2022-07-17T07:47:26;100451.66;;;19.95;43.14
11212;BME280;5663;50.864;12.096;2022-07-17T07:51:29;100439.09;;;19.86;41.87
11212;BME280;5663;50.864;12.096;2022-07-17T07:53:28;100439.34;;;19.83;42.27
11212;BME280;5663;50.864;12.096;2022-07-17T07:55:56;100437.56;;;19.83;42.23
11212;BME280;5663;50.864;12.096;2022-07-17T07:58:24;100430.91;;;19.78;43.14
11212;BME280;5663;50.864;12.096;2022-07-17T08:01:00;100432.56;;;19.79;43.20
11212;BME280;5663;50.864;12.096;2022-07-17T08:03:30;100424.28;;;19.72;43.69
11212;BME280;5663;50.864;12.096;2022-07-17T08:05:58;100434.06;;;19.83;43.26
11212;BME280;5663;50.864;12.096;2022-07-17T08:08:28;100428.78;;;19.83;43.77
11212;BME280;5663;50.864;12.096;2022-07-17T08:11:46;100428.84;;;19.94;44.01
11212;BME280;5663;50.864;12.096;2022-07-17T08:14:47;100423.22;;;19.99;43.17
11212;BME280;5663;50.864;12.096;2022-07-17T08:17:16;100427.00;;;20.07;43.75
11212;BME280;5663;50.864;12.096;2022-07-17T08:19:52;100422.34;;;20.11;43.58
11212;BME280;5663;50.864;12.096;2022-07-17T08:22:22;100429.66;;;20.18;43.35
11212;BME280;5663;50.864;12.096;2022-07-17T08:24:55;100437.03;;;20.26;44.05
11212;BME280;5663;50.864;12.096;2022-07-17T08:27:40;100436.59;;;20.32;44.41
11212;BME280;5663;50.864;12.096;2022-07-17T08:30:20;100442.00;;;20.42;43.62
11212;BME280;5663;50.864;12.096;2022-07-17T08:32:51;100437.91;;;20.51;43.30
11212;BME280;5663;50.864;12.096;2022-07-17T08:35:43;100422.75;;;20.53;43.37
11212;BME280;5663;50.864;12.096;2022-07-17T08:38:13;100444.06;;;20.74;44.02
11212;BME280;5663;50.864;12.096;2022-07-17T08:40:45;100445.66;;;20.87;43.56
11212;BME280;5663;50.864;12.096;2022-07-17T08:43:23;100449.66;;;21.04;42.28
11212;BME280;5663;50.864;12.096;2022-07-17T08:45:51;100441.22;;;21.22;42.66
11212;BME280;5663;50.864;12.096;2022-07-17T08:48:24;100454.00;;;21.50;43.01
11212;BME280;5663;50.864;12.096;2022-07-17T08:51:01;100452.78;;;21.77;42.54
11212;BME280;5663;50.864;12.096;2022-07-17T08:53:33;100426.00;;;22.02;42.38
11212;BME280;5663;50.864;12.096;2022-07-17T08:56:06;100451.75;;;22.44;42.10
11212;BME280;5663;50.864;12.096;2022-07-17T08:58:39;100453.38;;;22.77;42.27
11212;BME280;5663;50.864;12.096;2022-07-17T09:01:09;100448.84;;;23.09;41.34
11212;BME280;5663;50.864;12.096;2022-07-17T09:03:57;100437.97;;;23.43;39.85
11212;BME280;5663;50.864;12.096;2022-07-17T09:06:36;100438.22;;;23.71;39.37
11212;BME280;5663;50.864;12.096;2022-07-17T09:09:06;100442.59;;;23.91;37.15
11212;BME280;5663;50.864;12.096;2022-07-17T09:11:52;100449.06;;;24.18;36.67
11212;BME280;5663;50.864;12.096;2022-07-17T09:14:40;100438.72;;;24.34;36.27
11212;BME280;5663;50.864;12.096;2022-07-17T09:17:47;100441.34;;;24.73;37.93
11212;BME280;5663;50.864;12.096;2022-07-17T09:20:16;100424.75;;;24.98;37.65
11212;BME280;5663;50.864;12.096;2022-07-17T09:22:57;100419.88;;;25.31;37.31
11212;BME280;5663;50.864;12.096;2022-07-17T09:25:37;100404.81;;;25.49;36.58
11212;BME280;5663;50.864;12.096;2022-07-17T09:28:43;100418.53;;;25.72;36.37
11212;BME280;5663;50.864;12.096;2022-07-17T09:31:11;100409.34;;;25.85;34.82
11212;BME280;5663;50.864;12.096;2022-07-17T09:33:41;100404.63;;;25.96;34.75
11212;BME280;5663;50.864;12.096;2022-07-17T09:36:24;100401.44;;;26.11;33.40
11212;BME280;5663;50.864;12.096;2022-07-17T09:39:15;100387.50;;;25.99;32.31
11212;BME280;5663;50.864;12.096;2022-07-17T09:41:44;100409.44;;;25.93;31.94
11212;BME280;5663;50.864;12.096;2022-07-17T09:44:14;100409.97;;;25.96;32.56
11212;BME280;5663;50.864;12.096;2022-07-17T09:46:42;100402.69;;;25.98;32.42
11212;BME280;5663;50.864;12.096;2022-07-17T09:49:11;100405.94;;;26.10;31.42
11212;BME280;5663;50.864;12.096;2022-07-17T09:51:49;100411.13;;;26.12;31.90
11212;BME280;5663;50.864;12.096;2022-07-17T09:54:23;100397.78;;;26.12;32.49
11212;BME280;5663;50.864;12.096;2022-07-17T09:56:58;100400.03;;;26.42;33.54
11212;BME280;5663;50.864;12.096;2022-07-17T09:59:37;100395.31;;;26.80;33.49
11212;BME280;5663;50.864;12.096;2022-07-17T10:02:06;100394.13;;;27.09;32.13
11212;BME280;5663;50.864;12.096;2022-07-17T10:04:37;100386.88;;;27.19;32.59
11212;BME280;5663;50.864;12.096;2022-07-17T10:07:05;100401.97;;;27.44;32.28
11212;BME280;5663;50.864;12.096;2022-07-17T10:09:37;100394.69;;;27.63;31.32
11212;BME280;5663;50.864;12.096;2022-07-17T10:12:05;100382.19;;;27.71;31.59
11212;BME280;5663;50.864;12.096;2022-07-17T10:14:34;100398.47;;;27.94;30.79
11212;BME280;5663;50.864;12.096;2022-07-17T10:17:08;100385.09;;;27.86;29.78
11212;BME280;5663;50.864;12.096;2022-07-17T10:19:47;100402.28;;;27.92;29.24
11212;BME280;5663;50.864;12.096;2022-07-17T10:22:19;100408.16;;;28.04;30.97
11212;BME280;5663;50.864;12.096;2022-07-17T10:25:13;100408.84;;;28.30;30.68
11212;BME280;5663;50.864;12.096;2022-07-17T10:27:47;100399.84;;;28.47;29.35
11212;BME280;5663;50.864;12.096;2022-07-17T10:30:23;100397.97;;;28.48;29.45
11212;BME280;5663;50.864;12.096;2022-07-17T10:33:00;100402.50;;;28.56;30.08
11212;BME280;5663;50.864;12.096;2022-07-17T10:35:43;100399.13;;;28.78;28.79
11212;BME280;5663;50.864;12.096;2022-07-17T10:38:14;100382.53;;;28.83;30.00
11212;BME280;5663;50.864;12.096;2022-07-17T10:40:47;100390.03;;;29.04;27.73
11212;BME280;5663;50.864;12.096;2022-07-17T10:43:16;100387.22;;;28.89;27.00
11212;BME280;5663;50.864;12.096;2022-07-17T10:45:46;100382.16;;;28.94;27.04
11212;BME280;5663;50.864;12.096;2022-07-17T10:48:18;100383.28;;;29.16;28.35
11212;BME280;5663;50.864;12.096;2022-07-17T10:50:49;100384.53;;;29.36;27.39
11212;BME280;5663;50.864;12.096;2022-07-17T10:53:21;100376.31;;;29.38;26.34
11212;BME280;5663;50.864;12.096;2022-07-17T10:55:57;100386.91;;;29.31;25.53
11212;BME280;5663;50.864;12.096;2022-07-17T10:58:28;100359.69;;;29.11;26.53
11212;BME280;5663;50.864;12.096;2022-07-17T11:01:00;100368.19;;;29.23;27.03
11212;BME280;5663;50.864;12.096;2022-07-17T11:03:45;100382.28;;;29.48;25.79
11212;BME280;5663;50.864;12.096;2022-07-17T11:06:17;100389.97;;;29.59;25.94
11212;BME280;5663;50.864;12.096;2022-07-17T11:09:04;100383.44;;;29.54;26.33
11212;BME280;5663;50.864;12.096;2022-07-17T11:11:38;100379.38;;;29.66;27.42
11212;BME280;5663;50.864;12.096;2022-07-17T11:14:20;100375.56;;;29.83;26.87
11212;BME280;5663;50.864;12.096;2022-07-17T11:17:02;100377.78;;;30.03;27.02
11212;BME280;5663;50.864;12.096;2022-07-17T11:19:31;100365.03;;;30.05;26.84
11212;BME280;5663;50.864;12.096;2022-07-17T11:22:01;100379.31;;;30.20;26.71
11212;BME280;5663;50.864;12.096;2022-07-17T11:24:36;100353.69;;;30.17;25.71
11212;BME280;5663;50.864;12.096;2022-07-17T11:27:06;100365.19;;;30.26;26.27
11212;BME280;5663;50.864;12.096;2022-07-17T11:29:36;100361.69;;;30.26;25.57
11212;BME280;5663;50.864;12.096;2022-07-17T11:32:05;100359.00;;;30.26;24.46
11212;BME280;5663;50.864;12.096;2022-07-17T11:34:33;100357.72;;;30.13;24.63
11212;BME280;5663;50.864;12.096;2022-07-17T11:37:06;100327.63;;;29.80;24.51
11212;BME280;5663;50.864;12.096;2022-07-17T11:39:42;100357.53;;;30.15;24.89
11212;BME280;5663;50.864;12.096;2022-07-17T11:42:28;100356.69;;;30.37;24.31
11212;BME280;5663;50.864;12.096;2022-07-17T11:44:59;100345.13;;;30.52;24.72
11212;BME280;5663;50.864;12.096;2022-07-17T11:47:31;100323.66;;;30.37;22.41
11212;BME280;5663;50.864;12.096;2022-07-17T11:50:32;100347.06;;;30.05;24.92
11212;BME280;5663;50.864;12.096;2022-07-17T11:53:02;100350.50;;;30.14;24.43
11212;BME280;5663;50.864;12.096;2022-07-17T11:55:35;100324.28;;;30.01;24.16
11212;BME280;5663;50.864;12.096;2022-07-17T11:58:05;100348.13;;;30.19;22.70
11212;BME280;5663;50.864;12.096;2022-07-17T12:00:34;100336.22;;;30.22;22.87
11212;BME280;5663;50.864;12.096;2022-07-17T12:03:05;100340.94;;;30.34;25.12
11212;BME280;5663;50.864;12.096;2022-07-17T12:05:35;100332.38;;;30.54;23.79
11212;BME280;5663;50.864;12.096;2022-07-17T12:08:08;100340.25;;;30.70;23.13
11212;BME280;5663;50.864;12.096;2022-07-17T12:10:36;100346.13;;;30.88;24.56
11212;BME280;5663;50.864;12.096;2022-07-17T12:13:47;100321.47;;;30.85;22.41
11212;BME280;5663;50.864;12.096;2022-07-17T12:16:23;100347.66;;;30.98;22.36
11212;BME280;5663;50.864;12.096;2022-07-17T12:18:58;100321.38;;;30.78;22.10
11212;BME280;5663;50.864;12.096;2022-07-17T12:21:58;100336.75;;;30.84;21.07
11212;BME280;5663;50.864;12.096;2022-07-17T12:24:54;100330.25;;;30.94;22.88
11212;BME280;5663;50.864;12.096;2022-07-17T12:27:42;100344.66;;;31.22;22.09
11212;BME280;5663;50.864;12.096;2022-07-17T12:30:14;100340.25;;;31.29;21.24
11212;BME280;5663;50.864;12.096;2022-07-17T12:32:42;100328.16;;;31.25;21.13
11212;BME280;5663;50.864;12.096;2022-07-17T12:35:10;100324.44;;;31.26;21.41
11212;BME280;5663;50.864;12.096;2022-07-17T12:37:39;100330.19;;;31.23;22.06
11212;BME280;5663;50.864;12.096;2022-07-17T12:40:08;100323.34;;;31.35;22.21
11212;BME280;5663;50.864;12.096;2022-07-17T12:42:36;100330.16;;;31.53;21.85
11212;BME280;5663;50.864;12.096;2022-07-17T12:45:06;100321.25;;;31.16;19.65
11212;BME280;5663;50.864;12.096;2022-07-17T12:47:36;100324.97;;;31.00;20.08
11212;BME280;5663;50.864;12.096;2022-07-17T12:53:51;100270.41;;;30.70;21.83
11212;BME280;5663;50.864;12.096;2022-07-17T12:56:19;100307.41;;;31.19;22.60
11212;BME280;5663;50.864;12.096;2022-07-17T12:58:47;100296.44;;;31.35;20.42
11212;BME280;5663;50.864;12.096;2022-07-17T13:01:15;100298.63;;;31.47;21.23
11212;BME280;5663;50.864;12.096;2022-07-17T13:03:46;100304.78;;;31.62;20.10
11212;BME280;5663;50.864;12.096;2022-07-17T13:06:18;100302.47;;;31.59;20.24
11212;BME280;5663;50.864;12.096;2022-07-17T13:08:49;100293.78;;;31.57;20.38
11212;BME280;5663;50.864;12.096;2022-07-17T13:14:06;100289.69;;;31.61;20.53
11212;BME280;5663;50.864;12.096;2022-07-17T13:16:38;100272.28;;;31.21;20.66
11212;BME280;5663;50.864;12.096;2022-07-17T13:19:12;100287.84;;;31.25;20.46
11212;BME280;5663;50.864;12.096;2022-07-17T13:21:40;100284.22;;;30.97;22.04
11212;BME280;5663;50.864;12.096;2022-07-17T13:24:08;100282.50;;;31.10;21.83
11212;BME280;5663;50.864;12.096;2022-07-17T13:26:41;100279.41;;;31.28;22.06
11212;BME280;5663;50.864;12.096;2022-07-17T13:29:20;100278.78;;;31.48;20.88
11212;BME280;5663;50.864;12.096;2022-07-17T13:31:48;100278.03;;;31.54;21.43
11212;BME280;5663;50.864;12.096;2022-07-17T13:34:18;100281.34;;;31.56;22.11
11212;BME280;5663;50.864;12.096;2022-07-17T13:36:48;100280.66;;;31.69;21.75
11212;BME280;5663;50.864;12.096;2022-07-17T13:39:28;100269.06;;;31.68;21.41
11212;BME280;5663;50.864;12.096;2022-07-17T13:41:57;100278.34;;;31.87;20.88
11212;BME280;5663;50.864;12.096;2022-07-17T13:44:39;100281.72;;;31.96;20.13
11212;BME280;5663;50.864;12.096;2022-07-17T13:47:07;100275.94;;;31.99;19.67
11212;BME280;5663;50.864;12.096;2022-07-17T13:49:43;100276.75;;;31.93;20.67
11212;BME280;5663;50.864;12.096;2022-07-17T13:52:12;100282.81;;;32.01;19.90
11212;BME280;5663;50.864;12.096;2022-07-17T13:54:40;100279.75;;;32.11;19.19
11212;BME280;5663;50.864;12.096;2022-07-17T13:57:09;100273.59;;;32.17;18.82
11212;BME280;5663;50.864;12.096;2022-07-17T13:59:39;100272.72;;;32.10;19.27
11212;BME280;5663;50.864;12.096;2022-07-17T14:02:11;100265.31;;;32.19;20.19
11212;BME280;5663;50.864;12.096;2022-07-17T14:04:42;100270.09;;;32.23;20.09
11212;BME280;5663;50.864;12.096;2022-07-17T14:07:11;100261.66;;;32.26;20.94
11212;BME280;5663;50.864;12.096;2022-07-17T14:09:43;100272.13;;;32.43;20.46
11212;BME280;5663;50.864;12.096;2022-07-17T14:12:21;100268.06;;;32.53;19.46
11212;BME280;5663;50.864;12.096;2022-07-17T14:14:50;100252.72;;;32.54;19.62
11212;BME280;5663;50.864;12.096;2022-07-17T14:17:21;100242.88;;;32.40;20.23
11212;BME280;5663;50.864;12.096;2022-07-17T14:19:52;100251.44;;;32.50;20.23
11212;BME280;5663;50.864;12.096;2022-07-17T14:22:20;100257.31;;;32.60;18.68
11212;BME280;5663;50.864;12.096;2022-07-17T14:24:48;100249.78;;;32.49;19.43
11212;BME280;5663;50.864;12.096;2022-07-17T14:27:20;100249.41;;;32.58;19.05
11212;BME280;5663;50.864;12.096;2022-07-17T14:29:51;100247.16;;;32.62;18.68
11212;BME280;5663;50.864;12.096;2022-07-17T14:32:22;100255.25;;;32.62;19.45
11212;BME280;5663;50.864;12.096;2022-07-17T14:34:54;100254.84;;;32.65;19.74
11212;BME280;5663;50.864;12.096;2022-07-17T14:37:25;100243.84;;;32.67;19.37
11212;BME280;5663;50.864;12.096;2022-07-17T14:39:55;100250.72;;;32.69;19.00
11212;BME280;5663;50.864;12.096;2022-07-17T14:42:24;100241.41;;;32.72;18.37
11212;BME280;5663;50.864;12.096;2022-07-17T14:44:51;100227.91;;;32.65;19.25
11212;BME280;5663;50.864;12.096;2022-07-17T14:47:20;100236.16;;;32.57;19.02
11212;BME280;5663;50.864;12.096;2022-07-17T14:49:48;100236.75;;;32.52;18.70
11212;BME280;5663;50.864;12.096;2022-07-17T14:52:22;100235.50;;;32.48;18.89
11212;BME280;5663;50.864;12.096;2022-07-17T14:54:50;100228.59;;;32.39;19.56
11212;BME280;5663;50.864;12.096;2022-07-17T14:57:18;100227.94;;;32.37;19.89
11212;BME280;5663;50.864;12.096;2022-07-17T14:59:46;100219.81;;;32.30;20.23
11212;BME280;5663;50.864;12.096;2022-07-17T15:02:24;100211.09;;;32.22;19.30
11212;BME280;5663;50.864;12.096;2022-07-17T15:04:52;100230.81;;;32.29;19.05
11212;BME280;5663;50.864;12.096;2022-07-17T15:07:21;100231.03;;;32.34;19.07
11212;BME280;5663;50.864;12.096;2022-07-17T15:09:57;100213.84;;;32.35;18.97
11212;BME280;5663;50.864;12.096;2022-07-17T15:12:36;100225.72;;;32.41;19.18
11212;BME280;5663;50.864;12.096;2022-07-17T15:15:05;100219.03;;;32.36;19.35
11212;BME280;5663;50.864;12.096;2022-07-17T15:17:33;100209.06;;;32.30;18.62
11212;BME280;5663;50.864;12.096;2022-07-17T15:20:01;100213.19;;;32.26;19.08
11212;BME280;5663;50.864;12.096;2022-07-17T15:22:35;100209.44;;;32.21;19.79
11212;BME280;5663;50.864;12.096;2022-07-17T15:25:08;100171.53;;;31.87;18.64
11212;BME280;5663;50.864;12.096;2022-07-17T15:27:39;100200.13;;;31.88;19.13
11212;BME280;5663;50.864;12.096;2022-07-17T15:30:09;100206.38;;;31.74;18.69
11212;BME280;5663;50.864;12.096;2022-07-17T15:32:37;100195.72;;;31.59;18.74
11212;BME280;5663;50.864;12.096;2022-07-17T15:35:06;100203.59;;;31.61;18.39
11212;BME280;5663;50.864;12.096;2022-07-17T15:38:01;100203.22;;;31.64;19.00
11212;BME280;5663;50.864;12.096;2022-07-17T15:40:30;100207.56;;;31.65;18.01
11212;BME280;5663;50.864;12.096;2022-07-17T15:43:00;100200.91;;;31.61;18.81
11212;BME280;5663;50.864;12.096;2022-07-17T15:45:30;100204.88;;;31.65;19.25
11212;BME280;5663;50.864;12.096;2022-07-17T15:48:01;100204.44;;;31.61;18.09
11212;BME280;5663;50.864;12.096;2022-07-17T15:50:44;100203.00;;;31.37;19.95
11212;BME280;5663;50.864;12.096;2022-07-17T15:53:20;100202.75;;;31.32;20.06
11212;BME280;5663;50.864;12.096;2022-07-17T15:55:51;100201.81;;;31.25;18.97
11212;BME280;5663;50.864;12.096;2022-07-17T15:58:21;100173.13;;;30.89;19.82
11212;BME280;5663;50.864;12.096;2022-07-17T16:00:49;100197.06;;;30.84;18.92
11212;BME280;5663;50.864;12.096;2022-07-17T16:03:24;100193.72;;;30.82;20.73
11212;BME280;5663;50.864;12.096;2022-07-17T16:05:54;100197.09;;;30.91;20.72
11212;BME280;5663;50.864;12.096;2022-07-17T16:08:29;100198.03;;;30.98;21.17
11212;BME280;5663;50.864;12.096;2022-07-17T16:10:57;100195.59;;;31.03;20.40
11212;BME280;5663;50.864;12.096;2022-07-17T16:13:37;100186.94;;;30.86;19.39
11212;BME280;5663;50.864;12.096;2022-07-17T16:16:19;100194.66;;;30.60;19.86
11212;BME280;5663;50.864;12.096;2022-07-17T16:18:48;100180.34;;;30.53;20.45
11212;BME280;5663;50.864;12.096;2022-07-17T16:21:20;100183.91;;;30.60;19.41
11212;BME280;5663;50.864;12.096;2022-07-17T16:23:53;100183.28;;;30.58;20.02
11212;BME280;5663;50.864;12.096;2022-07-17T16:26:37;100175.59;;;30.55;20.38
11212;BME280;5663;50.864;12.096;2022-07-17T16:29:05;100175.97;;;30.52;19.51
11212;BME280;5663;50.864;12.096;2022-07-17T16:31:36;100159.16;;;30.28;20.23
11212;BME280;5663;50.864;12.096;2022-07-17T16:34:05;100174.25;;;30.29;20.50
11212;BME280;5663;50.864;12.096;2022-07-17T16:36:43;100161.19;;;30.26;21.21
11212;BME280;5663;50.864;12.096;2022-07-17T16:39:13;100161.84;;;30.28;20.36
11212;BME280;5663;50.864;12.096;2022-07-17T16:41:41;100166.38;;;30.13;20.25
11212;BME280;5663;50.864;12.096;2022-07-17T16:44:16;100160.78;;;30.00;20.37
11212;BME280;5663;50.864;12.096;2022-07-17T16:46:45;100155.44;;;30.00;20.56
11212;BME280;5663;50.864;12.096;2022-07-17T16:49:16;100151.06;;;29.84;20.80
11212;BME280;5663;50.864;12.096;2022-07-17T16:51:47;100160.97;;;29.83;21.72
11212;BME280;5663;50.864;12.096;2022-07-17T16:54:16;100164.22;;;29.79;21.52
11212;BME280;5663;50.864;12.096;2022-07-17T16:56:44;100141.06;;;29.63;21.32
11212;BME280;5663;50.864;12.096;2022-07-17T16:59:13;100166.16;;;29.70;20.73
11212;BME280;5663;50.864;12.096;2022-07-17T17:02:15;100161.63;;;29.48;21.00
11212;BME280;5663;50.864;12.096;2022-07-17T17:05:02;100160.69;;;29.40;21.54
11212;BME280;5663;50.864;12.096;2022-07-17T17:07:33;100165.88;;;29.42;21.53
11212;BME280;5663;50.864;12.096;2022-07-17T17:10:04;100155.78;;;29.44;20.79
11212;BME280;5663;50.864;12.096;2022-07-17T17:12:33;100156.16;;;29.41;21.58
11212;BME280;5663;50.864;12.096;2022-07-17T17:15:01;100164.03;;;29.42;21.51
11212;BME280;5663;50.864;12.096;2022-07-17T17:17:30;100159.38;;;29.36;21.08
11212;BME280;5663;50.864;12.096;2022-07-17T17:19:58;100153.56;;;29.33;21.96
11212;BME280;5663;50.864;12.096;2022-07-17T17:22:27;100152.41;;;29.27;22.56
11212;BME280;5663;50.864;12.096;2022-07-17T17:24:56;100160.47;;;29.27;21.94